createdAt,value
2022-09-18T00:00:23.991Z,98197.72
2022-09-18T00:02:26.913Z,98197.09
2022-09-18T00:04:29.577Z,98216.94
2022-09-18T00:06:34.538Z,98213.34
2022-09-18T00:08:38.741Z,98208.66
2022-09-18T00:10:47.022Z,98206.00
2022-09-18T00:12:52.232Z,98208.34
2022-09-18T00:14:54.707Z,98212.53
2022-09-18T00:17:22.394Z,98228.88
2022-09-18T00:19:24.990Z,98226.81
2022-09-18T00:21:29.163Z,98230.47
2022-09-18T00:23:31.755Z,98232.22
2022-09-18T00:25:37.468Z,98232.44
2022-09-18T00:27:42.849Z,98238.13
2022-09-18T00:29:47.682Z,98226.53
2022-09-18T00:31:49.859Z,98233.06
2022-09-18T00:33:53.407Z,98239.84
2022-09-18T00:35:55.778Z,98238.00
2022-09-18T00:37:58.291Z,98241.81
2022-09-18T00:40:00.572Z,98247.50
2022-09-18T00:42:03.403Z,98251.19
2022-09-18T00:44:30.197Z,98254.50
2022-09-18T00:46:37.344Z,98261.78
2022-09-18T00:48:57.897Z,98260.50
2022-09-18T00:51:01.209Z,98264.50
2022-09-18T00:53:08.555Z,98266.56
2022-09-18T00:55:11.819Z,98260.69
2022-09-18T00:57:21.208Z,98272.72
2022-09-18T00:59:27.793Z,98272.97
2022-09-18T01:01:30.033Z,98273.06
2022-09-18T01:03:32.224Z,98275.56
2022-09-18T01:06:04.245Z,98277.59
2022-09-18T01:08:27.929Z,98274.16
2022-09-18T01:10:58.037Z,98274.66
2022-09-18T01:13:08.313Z,98279.81
2022-09-18T01:15:29.061Z,98278.56
2022-09-18T01:17:45.747Z,98277.47
2022-09-18T01:20:00.111Z,98290.63
2022-09-18T01:22:16.888Z,98293.09
2022-09-18T01:25:14.021Z,98292.59
2022-09-18T01:27:42.322Z,98296.06
2022-09-18T01:30:11.147Z,98294.19
2022-09-18T01:32:33.801Z,98303.22
2022-09-18T01:34:51.140Z,98300.00
2022-09-18T01:37:02.058Z,98313.16
2022-09-18T01:39:23.306Z,98307.13
2022-09-18T01:41:28.805Z,98315.25
2022-09-18T01:43:32.827Z,98315.00
2022-09-18T01:45:45.258Z,98322.97
2022-09-18T01:48:04.728Z,98328.13
2022-09-18T01:50:11.980Z,98325.69
2022-09-18T01:52:28.160Z,98333.81
2022-09-18T01:54:36.009Z,98340.09
2022-09-18T01:56:43.984Z,98350.19
2022-09-18T01:58:49.277Z,98360.25
2022-09-18T02:01:00.373Z,98358.41
2022-09-18T02:03:17.441Z,98363.22
2022-09-18T02:05:25.855Z,98367.00
2022-09-18T02:07:36.626Z,98369.72
2022-09-18T02:09:39.912Z,98377.84
2022-09-18T02:11:51.220Z,98374.47
2022-09-18T02:14:09.093Z,98390.63
2022-09-18T02:16:38.503Z,98392.56
2022-09-18T02:18:44.553Z,98398.72
2022-09-18T02:20:47.660Z,98391.22
2022-09-18T02:22:53.109Z,98391.38
2022-09-18T02:25:00.199Z,98400.69
2022-09-18T02:27:05.023Z,98403.63
2022-09-18T02:29:10.651Z,98397.22
2022-09-18T02:31:13.367Z,98408.28
2022-09-18T02:33:36.719Z,98406.44
2022-09-18T02:35:46.525Z,98417.63
2022-09-18T02:38:01.544Z,98419.34
2022-09-18T02:40:10.464Z,98419.34
2022-09-18T02:42:29.754Z,98415.56
2022-09-18T02:44:38.535Z,98424.34
2022-09-18T02:46:57.700Z,98429.13
2022-09-18T02:49:10.211Z,98436.91
2022-09-18T02:51:51.738Z,98436.41
2022-09-18T02:54:07.793Z,98437.50
2022-09-18T02:56:25.876Z,98436.13
2022-09-18T02:58:35.276Z,98439.09
2022-09-18T03:00:38.163Z,98446.22
2022-09-18T03:02:47.887Z,98446.81
2022-09-18T03:04:55.998Z,98445.31
2022-09-18T03:07:14.969Z,98450.81
2022-09-18T03:09:18.232Z,98449.41
2022-09-18T03:11:20.520Z,98444.31
2022-09-18T03:13:22.707Z,98447.50
2022-09-18T03:15:24.940Z,98448.34
2022-09-18T03:17:27.497Z,98453.53
2022-09-18T03:19:32.471Z,98449.31
2022-09-18T03:21:37.312Z,98448.47
2022-09-18T03:23:45.552Z,98445.66
2022-09-18T03:25:55.304Z,98457.97
2022-09-18T03:27:57.762Z,98449.22
2022-09-18T03:30:08.556Z,98456.66
2022-09-18T03:32:12.722Z,98451.34
2022-09-18T03:34:19.989Z,98447.13
2022-09-18T03:36:22.954Z,98456.47
2022-09-18T03:38:28.684Z,98455.72
2022-09-18T03:40:32.633Z,98454.72
2022-09-18T03:42:39.099Z,98458.53
2022-09-18T03:44:45.542Z,98458.31
2022-09-18T03:46:54.210Z,98466.06
2022-09-18T03:48:56.585Z,98465.34
2022-09-18T03:51:01.946Z,98464.81
2022-09-18T03:53:04.906Z,98460.50
2022-09-18T03:55:39.281Z,98463.72
2022-09-18T03:58:00.032Z,98467.38
2022-09-18T04:00:27.601Z,98471.19
2022-09-18T04:02:43.715Z,98473.78
2022-09-18T04:05:24.209Z,98483.38
2022-09-18T04:07:45.037Z,98483.63
2022-09-18T04:10:16.116Z,98480.69
2022-09-18T04:12:18.328Z,98481.44
2022-09-18T04:14:29.825Z,98485.38
2022-09-18T04:16:33.134Z,98491.16
2022-09-18T04:18:36.119Z,98495.72
2022-09-18T04:20:40.263Z,98491.16
2022-09-18T04:22:42.424Z,98513.56
2022-09-18T04:24:46.529Z,98514.56
2022-09-18T04:26:50.324Z,98515.28
2022-09-18T04:28:55.673Z,98518.44
2022-09-18T04:30:58.429Z,98516.59
2022-09-18T04:33:00.593Z,98523.09
2022-09-18T04:35:06.144Z,98528.41
2022-09-18T04:37:10.526Z,98531.00
2022-09-18T04:39:14.460Z,98530.88
2022-09-18T04:41:18.110Z,98534.59
2022-09-18T04:43:20.734Z,98534.69
2022-09-18T04:45:25.927Z,98539.00
2022-09-18T04:47:28.517Z,98541.09
2022-09-18T04:49:30.784Z,98545.50
2022-09-18T04:51:35.412Z,98544.50
2022-09-18T04:53:39.630Z,98545.41
2022-09-18T04:55:45.441Z,98553.72
2022-09-18T04:57:52.440Z,98543.66
2022-09-18T04:59:58.997Z,98561.50
2022-09-18T05:02:01.460Z,98565.72
2022-09-18T05:04:04.013Z,98564.88
2022-09-18T05:06:18.162Z,98572.09
2022-09-18T05:08:22.848Z,98571.47
2022-09-18T05:10:25.822Z,98565.97
2022-09-18T05:12:28.393Z,98571.38
2022-09-18T05:14:31.950Z,98577.88
2022-09-18T05:16:38.427Z,98578.94
2022-09-18T05:18:59.267Z,98575.81
2022-09-18T05:21:05.443Z,98572.47
2022-09-18T05:23:08.750Z,98582.75
2022-09-18T05:25:12.178Z,98586.53
2022-09-18T05:27:14.505Z,98581.22
2022-09-18T05:29:16.823Z,98589.00
2022-09-18T05:31:19.705Z,98587.94
2022-09-18T05:33:22.660Z,98593.34
2022-09-18T05:35:26.424Z,98594.50
2022-09-18T05:37:29.037Z,98601.53
2022-09-18T05:39:31.669Z,98606.31
2022-09-18T05:41:37.243Z,98599.81
2022-09-18T05:43:43.871Z,98604.25
2022-09-18T05:45:46.770Z,98603.38
2022-09-18T05:48:03.101Z,98602.94
2022-09-18T05:50:08.015Z,98602.63
2022-09-18T05:52:10.890Z,98611.81
2022-09-18T05:54:16.429Z,98613.03
2022-09-18T05:56:23.196Z,98610.44
2022-09-18T05:58:28.004Z,98616.69
2022-09-18T06:00:33.902Z,98614.66
2022-09-18T06:02:44.094Z,98619.41
2022-09-18T06:04:50.714Z,98622.78
2022-09-18T06:06:52.931Z,98628.72
2022-09-18T06:08:55.723Z,98623.31
2022-09-18T06:11:03.226Z,98631.75
2022-09-18T06:13:13.451Z,98633.25
2022-09-18T06:15:19.209Z,98642.44
2022-09-18T06:17:23.669Z,98640.63
2022-09-18T06:19:29.329Z,98643.31
2022-09-18T06:21:33.433Z,98653.78
2022-09-18T06:23:39.405Z,98648.75
2022-09-18T06:25:56.398Z,98651.00
2022-09-18T06:28:00.491Z,98655.88
2022-09-18T06:30:03.963Z,98665.81
2022-09-18T06:32:08.910Z,98662.03
2022-09-18T06:34:14.151Z,98661.91
2022-09-18T06:36:18.807Z,98669.94
2022-09-18T06:38:34.973Z,98667.44
2022-09-18T06:40:37.580Z,98677.59
2022-09-18T06:43:15.363Z,98688.53
2022-09-18T06:45:35.866Z,98686.69
2022-09-18T06:47:40.353Z,98683.00
2022-09-18T06:49:45.724Z,98692.09
2022-09-18T06:51:49.079Z,98687.47
2022-09-18T06:53:51.870Z,98691.47
2022-09-18T06:56:00.051Z,98696.13
2022-09-18T06:58:02.771Z,98696.66
2022-09-18T07:00:05.946Z,98700.13
2022-09-18T07:02:19.591Z,98707.16
2022-09-18T07:04:29.197Z,98710.72
2022-09-18T07:06:33.197Z,98719.69
2022-09-18T07:08:35.580Z,98712.56
2022-09-18T07:10:48.509Z,98710.81
2022-09-18T07:12:56.241Z,98719.16
2022-09-18T07:15:00.137Z,98718.06
2022-09-18T07:17:02.782Z,98728.81
2022-09-18T07:19:05.360Z,98722.72
2022-09-18T07:21:07.973Z,98726.97
2022-09-18T07:23:13.888Z,98730.63
2022-09-18T07:25:22.767Z,98732.59
2022-09-18T07:27:24.818Z,98740.56
2022-09-18T07:29:27.657Z,98739.72
2022-09-18T07:31:32.430Z,98729.00
2022-09-18T07:33:40.668Z,98746.00
2022-09-18T07:35:44.662Z,98748.47
2022-09-18T07:37:48.805Z,98751.19
2022-09-18T07:40:00.334Z,98757.47
2022-09-18T07:42:21.361Z,98754.88
2022-09-18T07:47:51.088Z,98776.59
2022-09-18T07:49:53.556Z,98776.59
2022-09-18T07:51:56.218Z,98786.56
2022-09-18T07:53:58.760Z,98780.84
2022-09-18T07:56:19.377Z,98786.16
2022-09-18T07:58:23.605Z,98791.44
2022-09-18T08:01:02.572Z,98799.00
2022-09-18T08:03:09.634Z,98798.16
2022-09-18T08:05:31.238Z,98803.56
2022-09-18T08:08:08.129Z,98800.09
2022-09-18T08:10:31.500Z,98807.69
2022-09-18T08:13:08.790Z,98805.66
2022-09-18T08:15:44.092Z,98804.97
2022-09-18T08:18:23.942Z,98802.94
2022-09-18T08:20:38.570Z,98814.41
2022-09-18T08:22:51.148Z,98823.28
2022-09-18T08:24:57.205Z,98825.47
2022-09-18T08:27:03.707Z,98817.34
2022-09-18T08:29:08.294Z,98823.53
2022-09-18T08:31:12.903Z,98820.47
2022-09-18T08:33:18.192Z,98825.59
2022-09-18T08:35:23.746Z,98827.22
2022-09-18T08:37:26.599Z,98827.34
2022-09-18T08:39:47.556Z,98826.13
2022-09-18T08:42:14.604Z,98821.94
2022-09-18T08:44:24.295Z,98824.84
2022-09-18T08:46:36.318Z,98820.75
2022-09-18T08:48:50.519Z,98825.00
2022-09-18T08:51:20.077Z,98826.63
2022-09-18T08:53:49.814Z,98822.69
2022-09-18T08:56:33.868Z,98825.84
2022-09-18T08:59:11.788Z,98831.06
2022-09-18T09:01:18.003Z,98830.50
2022-09-18T09:03:45.355Z,98833.31
2022-09-18T09:05:53.559Z,98837.22
2022-09-18T09:08:17.119Z,98841.78
2022-09-18T09:10:35.211Z,98835.91
2022-09-18T09:12:58.336Z,98838.84
2022-09-18T09:15:27.613Z,98844.13
2022-09-18T09:17:48.426Z,98842.50
2022-09-18T09:20:06.020Z,98847.91
2022-09-18T09:22:18.640Z,98841.84
2022-09-18T09:24:55.410Z,98847.50
2022-09-18T09:27:25.383Z,98849.00
2022-09-18T09:30:03.060Z,98850.41
2022-09-18T09:32:48.028Z,98855.84
2022-09-18T09:35:33.737Z,98851.47
2022-09-18T09:37:48.589Z,98849.94
2022-09-18T09:40:10.691Z,98857.84
2022-09-18T09:46:21.331Z,98863.13
2022-09-18T09:48:52.735Z,98863.66
2022-09-18T09:51:04.704Z,98864.03
2022-09-18T09:57:24.871Z,98868.75
2022-09-18T10:00:13.399Z,98879.44
2022-09-18T10:02:50.628Z,98878.97
2022-09-18T10:05:03.790Z,98886.00
2022-09-18T10:07:24.054Z,98892.28
2022-09-18T10:09:31.505Z,98889.91
2022-09-18T10:11:38.235Z,98887.53
2022-09-18T10:13:47.448Z,98895.59
2022-09-18T10:16:02.753Z,98895.84
2022-09-18T10:18:16.264Z,98891.41
2022-09-18T10:20:31.733Z,98898.56
2022-09-18T10:22:36.000Z,98904.34
2022-09-18T10:25:14.045Z,98906.56
2022-09-18T10:27:17.745Z,98913.88
2022-09-18T10:29:21.085Z,98910.19
2022-09-18T10:31:51.210Z,98920.09
2022-09-18T10:33:56.411Z,98917.38
2022-09-18T10:36:38.969Z,98917.63
2022-09-18T10:38:52.636Z,98914.53
2022-09-18T10:41:35.693Z,98918.25
2022-09-18T10:44:03.321Z,98913.91
2022-09-18T10:46:06.106Z,98913.28
2022-09-18T10:48:22.526Z,98918.59
2022-09-18T10:50:25.182Z,98922.81
2022-09-18T10:52:33.692Z,98921.47
2022-09-18T10:54:41.159Z,98917.84
2022-09-18T10:56:46.487Z,98917.38
2022-09-18T10:58:50.418Z,98919.09
2022-09-18T11:01:00.738Z,98927.38
2022-09-18T11:03:14.959Z,98928.34
2022-09-18T11:05:19.703Z,98918.09
2022-09-18T11:07:26.043Z,98913.13
2022-09-18T11:09:46.905Z,98921.56
2022-09-18T11:11:51.609Z,98923.41
2022-09-18T11:14:29.866Z,98920.53
2022-09-18T11:16:49.815Z,98937.81
2022-09-18T11:19:14.094Z,98945.66
2022-09-18T11:21:19.401Z,98941.59
2022-09-18T11:23:21.713Z,98943.94
2022-09-18T11:25:29.575Z,98946.66
2022-09-18T11:27:50.589Z,98941.97
2022-09-18T11:29:53.865Z,98937.97
2022-09-18T11:32:11.902Z,98944.38
2022-09-18T11:34:28.795Z,98942.44
2022-09-18T11:36:33.247Z,98946.06
2022-09-18T11:38:49.613Z,98955.22
2022-09-18T11:40:54.712Z,98961.03
2022-09-18T11:43:06.053Z,98953.25
2022-09-18T11:45:48.075Z,98957.03
2022-09-18T11:48:36.772Z,98954.19
2022-09-18T11:50:39.581Z,98959.78
2022-09-18T11:52:49.948Z,98961.88
2022-09-18T11:55:05.016Z,98968.59
2022-09-18T11:57:17.467Z,98957.41
2022-09-18T11:59:30.010Z,98952.97
2022-09-18T12:01:50.380Z,98952.72
2022-09-18T12:04:24.706Z,98967.44
2022-09-18T12:06:54.256Z,98960.16
2022-09-18T12:09:16.724Z,98960.91
2022-09-18T12:12:01.957Z,98972.13
2022-09-18T12:14:45.316Z,98974.75
2022-09-18T12:17:00.945Z,98974.59
2022-09-18T12:19:36.864Z,98988.69
2022-09-18T12:21:53.343Z,98983.38
2022-09-18T12:23:56.500Z,98975.59
2022-09-18T12:26:23.661Z,98985.81
2022-09-18T12:28:49.456Z,98989.28
2022-09-18T12:31:11.375Z,99002.50
2022-09-18T12:33:21.018Z,98993.47
2022-09-18T12:35:46.995Z,98994.44
2022-09-18T12:37:55.416Z,98996.56
2022-09-18T12:40:21.972Z,99000.97
2022-09-18T12:42:52.816Z,98992.34
2022-09-18T12:48:40.740Z,98994.06
2022-09-18T12:51:05.964Z,99005.31
2022-09-18T12:53:10.222Z,99000.50
2022-09-18T12:55:35.810Z,98996.25
2022-09-18T12:57:53.531Z,99000.09
2022-09-18T13:00:14.705Z,99001.59
2022-09-18T13:02:36.251Z,99001.25
2022-09-18T13:04:47.721Z,98993.19
2022-09-18T13:07:04.228Z,98996.78
2022-09-18T13:09:22.690Z,99003.31
2022-09-18T13:11:49.158Z,99003.56
2022-09-18T13:14:04.080Z,99005.34
2022-09-18T13:16:11.794Z,99009.56
2022-09-18T13:18:38.219Z,99001.41
2022-09-18T13:20:45.102Z,99010.06
2022-09-18T13:22:53.433Z,99009.81
2022-09-18T13:24:59.900Z,99002.63
2022-09-18T13:27:07.765Z,99009.06
2022-09-18T13:29:49.328Z,99010.16
2022-09-18T13:31:55.378Z,99018.94
2022-09-18T13:34:00.258Z,99015.25
2022-09-18T13:36:05.407Z,99011.28
2022-09-18T13:38:16.543Z,99018.06
2022-09-18T13:40:44.795Z,99027.66
2022-09-18T13:42:47.692Z,99025.22
2022-09-18T13:44:51.116Z,99020.03
2022-09-18T13:47:14.805Z,99028.16
2022-09-18T13:49:32.278Z,99024.44
2022-09-18T13:51:37.450Z,99038.03
2022-09-18T13:53:42.859Z,99032.69
2022-09-18T13:55:50.251Z,99032.31
2022-09-18T13:58:13.186Z,99033.28
2022-09-18T14:00:21.791Z,99032.78
2022-09-18T14:02:28.495Z,99028.56
2022-09-18T14:04:46.508Z,99037.03
2022-09-18T14:06:49.327Z,99043.25
2022-09-18T14:08:55.158Z,99042.72
2022-09-18T14:11:15.414Z,99042.06
2022-09-18T14:13:33.045Z,99037.50
2022-09-18T14:15:36.622Z,99037.72
2022-09-18T14:17:41.642Z,99042.53
2022-09-18T14:19:50.371Z,99038.97
2022-09-18T14:21:55.185Z,99031.91
2022-09-18T14:24:19.207Z,99044.19
2022-09-18T14:26:31.657Z,99047.78
2022-09-18T14:28:34.854Z,99041.16
2022-09-18T14:30:37.754Z,99048.44
2022-09-18T14:32:44.043Z,99047.78
2022-09-18T14:34:54.639Z,99037.16
2022-09-18T14:37:00.700Z,99044.44
2022-09-18T14:39:03.111Z,99051.59
2022-09-18T14:41:28.951Z,99050.31
2022-09-18T14:43:31.196Z,99045.91
2022-09-18T14:45:33.686Z,99050.25
2022-09-18T14:47:36.471Z,99051.16
2022-09-18T14:49:43.662Z,99058.78
2022-09-18T14:52:03.073Z,99055.69
2022-09-18T14:54:22.287Z,99046.28
2022-09-18T14:56:36.809Z,99057.25
2022-09-18T14:58:43.271Z,99057.03
2022-09-18T15:00:47.814Z,99065.31
2022-09-18T15:02:53.211Z,99059.13
2022-09-18T15:04:56.459Z,99064.53
2022-09-18T15:06:59.083Z,99064.03
2022-09-18T15:09:03.217Z,99061.31
2022-09-18T15:11:06.372Z,99056.72
2022-09-18T15:13:11.823Z,99065.75
2022-09-18T15:15:35.702Z,99055.44
2022-09-18T15:17:38.609Z,99062.41
2022-09-18T15:19:41.092Z,99052.16
2022-09-18T15:21:47.870Z,99060.78
2022-09-18T15:23:50.693Z,99061.63
2022-09-18T15:25:54.908Z,99060.53
2022-09-18T15:27:59.869Z,99059.44
2022-09-18T15:30:09.956Z,99054.88
2022-09-18T15:32:21.043Z,99064.41
2022-09-18T15:34:29.244Z,99061.69
2022-09-18T15:36:36.592Z,99069.13
2022-09-18T15:38:45.303Z,99062.69
2022-09-18T15:40:51.066Z,99058.13
2022-09-18T15:43:02.618Z,99058.81
2022-09-18T15:45:08.005Z,99053.38
2022-09-18T15:47:32.858Z,99062.09
2022-09-18T15:49:35.814Z,99064.59
2022-09-18T15:51:38.979Z,99053.28
2022-09-18T15:53:42.684Z,99068.97
2022-09-18T15:55:56.186Z,99070.69
2022-09-18T15:58:20.494Z,99064.09
2022-09-18T16:00:25.583Z,99078.75
2022-09-18T16:02:35.715Z,99077.00
2022-09-18T16:04:38.398Z,99076.81
2022-09-18T16:06:49.955Z,99071.56
2022-09-18T16:08:55.784Z,99067.13
2022-09-18T16:11:00.185Z,99080.59
2022-09-18T16:13:07.519Z,99069.22
2022-09-18T16:15:18.300Z,99071.03
2022-09-18T16:17:31.931Z,99081.34
2022-09-18T16:19:36.433Z,99084.72
2022-09-18T16:21:43.063Z,99087.25
2022-09-18T16:23:55.362Z,99083.03
2022-09-18T16:26:09.902Z,99087.47
2022-09-18T16:28:33.092Z,99084.44
2022-09-18T16:30:37.785Z,99080.72
2022-09-18T16:32:40.496Z,99082.50
2022-09-18T16:34:47.431Z,99085.19
2022-09-18T16:36:51.000Z,99091.72
2022-09-18T16:38:53.241Z,99096.25
2022-09-18T16:40:55.740Z,99093.66
2022-09-18T16:43:01.147Z,99094.44
2022-09-18T16:45:03.386Z,99095.38
2022-09-18T16:47:09.687Z,99099.50
2022-09-18T16:49:14.592Z,99099.50
2022-09-18T16:51:16.601Z,99099.69
2022-09-18T16:53:19.029Z,99101.75
2022-09-18T16:55:22.787Z,99098.28
2022-09-18T16:57:29.513Z,99102.41
2022-09-18T16:59:36.520Z,99098.72
2022-09-18T17:02:02.471Z,99096.03
2022-09-18T17:04:06.202Z,99103.38
2022-09-18T17:06:09.212Z,99103.38
2022-09-18T17:08:11.342Z,99101.84
2022-09-18T17:10:13.945Z,99118.97
2022-09-18T17:12:15.989Z,99109.22
2022-09-18T17:14:19.121Z,99115.31
2022-09-18T17:16:35.472Z,99122.34
2022-09-18T17:18:45.081Z,99117.56
2022-09-18T17:20:47.738Z,99121.03
2022-09-18T17:22:52.386Z,99123.75
2022-09-18T17:24:54.747Z,99123.66
2022-09-18T17:26:57.698Z,99124.28
2022-09-18T17:29:00.278Z,99128.63
2022-09-18T17:31:18.044Z,99131.03
2022-09-18T17:33:20.604Z,99136.13
2022-09-18T17:35:25.035Z,99130.25
2022-09-18T17:37:31.244Z,99134.25
2022-09-18T17:39:37.100Z,99144.09
2022-09-18T17:41:39.818Z,99140.97
2022-09-18T17:43:51.032Z,99140.50
2022-09-18T17:45:58.716Z,99136.59
2022-09-18T17:48:01.898Z,99147.31
2022-09-18T17:50:06.071Z,99150.22
2022-09-18T17:52:08.841Z,99146.75
2022-09-18T17:54:12.687Z,99153.44
2022-09-18T17:56:21.016Z,99159.47
2022-09-18T17:58:29.786Z,99162.09
2022-09-18T18:00:34.307Z,99163.47
2022-09-18T18:02:37.898Z,99163.38
2022-09-18T18:04:40.256Z,99165.09
2022-09-18T18:06:44.521Z,99166.72
2022-09-18T18:08:47.152Z,99171.94
2022-09-18T18:10:49.907Z,99173.00
2022-09-18T18:12:52.362Z,99170.50
2022-09-18T18:14:57.397Z,99170.94
2022-09-18T18:17:01.589Z,99173.44
2022-09-18T18:19:08.706Z,99176.34
2022-09-18T18:21:11.741Z,99181.56
2022-09-18T18:23:14.705Z,99180.69
2022-09-18T18:25:17.149Z,99181.25
2022-09-18T18:27:21.799Z,99173.34
2022-09-18T18:29:25.808Z,99180.78
2022-09-18T18:31:29.073Z,99178.50
2022-09-18T18:33:32.844Z,99183.59
2022-09-18T18:35:35.332Z,99176.94
2022-09-18T18:37:37.749Z,99185.38
2022-09-18T18:39:40.244Z,99188.97
2022-09-18T18:41:45.031Z,99190.38
2022-09-18T18:43:55.615Z,99191.75
2022-09-18T18:45:58.925Z,99200.13
2022-09-18T18:48:01.072Z,99211.16
2022-09-18T18:50:09.459Z,99211.09
2022-09-18T18:52:12.389Z,99217.44
2022-09-18T18:54:19.828Z,99216.78
2022-09-18T18:56:22.680Z,99220.66
2022-09-18T18:58:27.283Z,99227.91
2022-09-18T19:00:30.418Z,99227.81
2022-09-18T19:02:32.873Z,99224.34
2022-09-18T19:04:36.605Z,99229.16
2022-09-18T19:06:41.062Z,99219.97
2022-09-18T19:08:49.811Z,99228.88
2022-09-18T19:11:01.595Z,99222.97
2022-09-18T19:13:05.023Z,99221.91
2022-09-18T19:15:09.420Z,99227.31
2022-09-18T19:17:14.174Z,99219.19
2022-09-18T19:19:18.254Z,99222.41
2022-09-18T19:21:22.502Z,99226.28
2022-09-18T19:23:25.299Z,99230.72
2022-09-18T19:25:28.005Z,99223.09
2022-09-18T19:27:31.118Z,99232.38
2022-09-18T19:29:35.099Z,99223.47
2022-09-18T19:31:38.843Z,99229.00
2022-09-18T19:33:41.127Z,99220.09
2022-09-18T19:35:46.355Z,99228.28
2022-09-18T19:37:50.107Z,99231.97
2022-09-18T19:39:55.192Z,99228.09
2022-09-18T19:42:06.496Z,99234.28
2022-09-18T19:44:33.027Z,99233.13
2022-09-18T19:46:36.691Z,99228.78
2022-09-18T19:48:39.583Z,99236.13
2022-09-18T19:50:46.924Z,99239.91
2022-09-18T19:53:14.546Z,99242.03
2022-09-18T19:55:20.967Z,99237.47
2022-09-18T19:57:24.332Z,99242.09
2022-09-18T19:59:26.579Z,99242.03
2022-09-18T20:01:29.272Z,99254.09
2022-09-18T20:03:32.055Z,99237.88
2022-09-18T20:05:38.770Z,99234.66
2022-09-18T20:07:44.282Z,99237.94
2022-09-18T20:09:46.548Z,99242.69
2022-09-18T20:11:49.566Z,99230.13
2022-09-18T20:13:52.902Z,99237.16
2022-09-18T20:16:08.222Z,99240.34
2022-09-18T20:18:10.640Z,99243.56
2022-09-18T20:20:16.665Z,99231.00
2022-09-18T20:22:19.212Z,99240.78
2022-09-18T20:24:21.795Z,99242.78
2022-09-18T20:26:25.009Z,99245.47
2022-09-18T20:28:34.375Z,99243.63
2022-09-18T20:30:36.864Z,99245.47
2022-09-18T20:32:39.347Z,99244.53
2022-09-18T20:34:47.856Z,99239.22
2022-09-18T20:36:54.578Z,99241.06
2022-09-18T20:39:02.059Z,99239.88
2022-09-18T20:41:15.492Z,99240.00
2022-09-18T20:43:18.253Z,99246.34
2022-09-18T20:45:21.746Z,99244.63
2022-09-18T20:47:26.301Z,99245.88
2022-09-18T20:49:29.815Z,99245.47
2022-09-18T20:51:35.086Z,99243.53
2022-09-18T20:53:41.330Z,99250.00
2022-09-18T20:55:45.403Z,99245.56
2022-09-18T20:57:47.811Z,99250.31
2022-09-18T20:59:50.291Z,99249.59
2022-09-18T21:01:52.974Z,99252.56
2022-09-18T21:04:00.525Z,99249.28
2022-09-18T21:06:21.483Z,99255.19
2022-09-18T21:08:26.292Z,99247.94
2022-09-18T21:10:30.213Z,99253.81
2022-09-18T21:12:39.113Z,99256.66
2022-09-18T21:14:42.936Z,99258.28
2022-09-18T21:16:45.640Z,99245.91
2022-09-18T21:18:49.373Z,99250.34
2022-09-18T21:21:04.333Z,99250.91
2022-09-18T21:23:24.803Z,99259.38
2022-09-18T21:25:30.261Z,99270.19
2022-09-18T21:27:35.124Z,99278.41
2022-09-18T21:29:43.271Z,99271.34
2022-09-18T21:31:46.650Z,99276.94
2022-09-18T21:33:53.192Z,99274.56
2022-09-18T21:35:55.732Z,99270.31
2022-09-18T21:37:58.392Z,99265.16
2022-09-18T21:40:01.008Z,99267.69
2022-09-18T21:42:07.568Z,99273.34
2022-09-18T21:44:13.407Z,99265.06
2022-09-18T21:46:19.456Z,99271.78
2022-09-18T21:48:24.309Z,99274.31
2022-09-18T21:50:26.574Z,99280.78
2022-09-18T21:52:30.420Z,99273.28
2022-09-18T21:54:33.419Z,99276.06
2022-09-18T21:56:35.832Z,99269.78
2022-09-18T21:58:40.615Z,99276.06
2022-09-18T22:00:43.614Z,99286.81
2022-09-18T22:02:46.938Z,99286.19
2022-09-18T22:04:49.608Z,99278.28
2022-09-18T22:06:55.735Z,99274.66
2022-09-18T22:09:00.008Z,99277.22
2022-09-18T22:11:04.114Z,99265.69
2022-09-18T22:13:08.608Z,99274.84
2022-09-18T22:15:11.118Z,99268.94
2022-09-18T22:17:13.420Z,99273.38
2022-09-18T22:19:17.890Z,99266.06
2022-09-18T22:21:25.894Z,99264.22
2022-09-18T22:23:27.998Z,99257.00
2022-09-18T22:25:32.857Z,99264.31
2022-09-18T22:27:35.270Z,99263.63
2022-09-18T22:29:39.956Z,99269.09
2022-09-18T22:31:42.902Z,99260.50
2022-09-18T22:33:46.715Z,99265.03
2022-09-18T22:35:49.662Z,99269.91
2022-09-18T22:37:53.080Z,99267.19
2022-09-18T22:39:55.721Z,99270.94
2022-09-18T22:41:58.206Z,99269.47
2022-09-18T22:44:00.419Z,99274.00
2022-09-18T22:46:08.447Z,99270.50
2022-09-18T22:48:10.698Z,99269.28
2022-09-18T22:50:14.020Z,99272.34
2022-09-18T22:52:17.030Z,99273.28
2022-09-18T22:54:26.816Z,99269.78
2022-09-18T22:56:31.783Z,99266.03
2022-09-18T22:58:35.953Z,99264.75
2022-09-18T23:00:38.208Z,99264.41
2022-09-18T23:03:17.766Z,99264.66
2022-09-18T23:05:20.259Z,99262.31
2022-09-18T23:07:22.645Z,99255.09
2022-09-18T23:09:25.608Z,99260.66
2022-09-18T23:11:30.792Z,99265.47
2022-09-18T23:13:33.490Z,99259.69
2022-09-18T23:15:36.910Z,99267.97
2022-09-18T23:17:39.248Z,99270.50
2022-09-18T23:19:44.266Z,99267.81
2022-09-18T23:21:46.742Z,99265.19
2022-09-18T23:23:51.155Z,99270.75
2022-09-18T23:25:53.896Z,99270.50
2022-09-18T23:27:56.320Z,99267.88
2022-09-18T23:29:58.861Z,99271.53
2022-09-18T23:32:01.267Z,99254.13
2022-09-18T23:34:08.251Z,99262.22
2022-09-18T23:36:16.401Z,99259.09
2022-09-18T23:38:18.847Z,99253.50
2022-09-18T23:40:21.529Z,99249.16
2022-09-18T23:42:26.045Z,99251.16
2022-09-18T23:44:30.324Z,99244.00
2022-09-18T23:46:32.561Z,99246.44
2022-09-18T23:48:34.933Z,99240.88
2022-09-18T23:50:37.011Z,99230.00
2022-09-18T23:52:39.151Z,99237.84
2022-09-18T23:54:44.872Z,99230.06
2022-09-18T23:56:48.702Z,99215.63
2022-09-18T23:58:55.649Z,99215.88
